sensor_id;sensor_type;location;lat;lon;timestamp;temperature;humidity
20174;DHT22;10246;50.620;7.232;2024-02-21T00:00:25;10.00;1.50
20174;DHT22;10246;50.620;7.232;2024-02-21T00:02:51;10.00;1.50
20174;DHT22;10246;50.620;7.232;2024-02-21T00:05:18;9.90;2.20
20174;DHT22;10246;50.620;7.232;2024-02-21T00:07:45;10.00;1.70
20174;DHT22;10246;50.620;7.232;2024-02-21T00:10:13;10.00;2.00
20174;DHT22;10246;50.620;7.232;2024-02-21T00:12:40;10.00;2.30
20174;DHT22;10246;50.620;7.232;2024-02-21T00:15:07;10.00;1.00
20174;DHT22;10246;50.620;7.232;2024-02-21T00:17:34;10.00;1.00
20174;DHT22;10246;50.620;7.232;2024-02-21T00:20:00;10.00;1.00
20174;DHT22;10246;50.620;7.232;2024-02-21T00:22:27;10.00;1.00
20174;DHT22;10246;50.620;7.232;2024-02-21T00:24:56;10.10;1.00
20174;DHT22;10246;50.620;7.232;2024-02-21T00:27:25;10.10;1.00
20174;DHT22;10246;50.620;7.232;2024-02-21T00:29:51;10.00;1.00
20174;DHT22;10246;50.620;7.232;2024-02-21T00:32:18;10.10;1.00
20174;DHT22;10246;50.620;7.232;2024-02-21T00:34:45;10.10;1.00
20174;DHT22;10246;50.620;7.232;2024-02-21T00:37:12;10.10;1.00
20174;DHT22;10246;50.620;7.232;2024-02-21T00:39:38;10.00;1.00
20174;DHT22;10246;50.620;7.232;2024-02-21T00:42:05;10.10;1.00
20174;DHT22;10246;50.620;7.232;2024-02-21T00:44:34;10.10;1.00
20174;DHT22;10246;50.620;7.232;2024-02-21T00:47:00;10.10;1.00
20174;DHT22;10246;50.620;7.232;2024-02-21T00:49:27;10.00;1.00
20174;DHT22;10246;50.620;7.232;2024-02-21T00:51:54;10.00;1.00
20174;DHT22;10246;50.620;7.232;2024-02-21T00:54:20;10.00;1.00
20174;DHT22;10246;50.620;7.232;2024-02-21T00:56:48;10.00;1.00
20174;DHT22;10246;50.620;7.232;2024-02-21T00:59:16;10.00;1.00
20174;DHT22;10246;50.620;7.232;2024-02-21T01:01:44;10.00;1.00
20174;DHT22;10246;50.620;7.232;2024-02-21T01:04:11;10.00;1.00
20174;DHT22;10246;50.620;7.232;2024-02-21T01:06:37;10.10;1.00
20174;DHT22;10246;50.620;7.232;2024-02-21T01:09:04;10.00;1.00
20174;DHT22;10246;50.620;7.232;2024-02-21T01:11:31;10.00;1.00
20174;DHT22;10246;50.620;7.232;2024-02-21T01:13:57;10.10;1.00
20174;DHT22;10246;50.620;7.232;2024-02-21T01:16:24;10.00;1.00
20174;DHT22;10246;50.620;7.232;2024-02-21T01:18:53;10.00;1.00
20174;DHT22;10246;50.620;7.232;2024-02-21T01:21:20;10.00;1.00
20174;DHT22;10246;50.620;7.232;2024-02-21T01:23:46;10.00;1.30
20174;DHT22;10246;50.620;7.232;2024-02-21T01:26:13;10.00;2.10
20174;DHT22;10246;50.620;7.232;2024-02-21T01:28:41;9.90;3.00
20174;DHT22;10246;50.620;7.232;2024-02-21T01:31:08;9.90;2.10
20174;DHT22;10246;50.620;7.232;2024-02-21T01:33:34;10.00;2.40
20174;DHT22;10246;50.620;7.232;2024-02-21T01:36:03;9.90;2.60
20174;DHT22;10246;50.620;7.232;2024-02-21T01:38:32;10.00;1.00
20174;DHT22;10246;50.620;7.232;2024-02-21T01:40:59;10.00;1.00
20174;DHT22;10246;50.620;7.232;2024-02-21T01:43:25;10.00;1.00
20174;DHT22;10246;50.620;7.232;2024-02-21T01:45:54;10.00;1.00
20174;DHT22;10246;50.620;7.232;2024-02-21T01:48:22;10.00;1.00
20174;DHT22;10246;50.620;7.232;2024-02-21T01:50:49;10.00;1.00
20174;DHT22;10246;50.620;7.232;2024-02-21T01:53:20;10.00;1.00
20174;DHT22;10246;50.620;7.232;2024-02-21T01:55:48;10.00;1.00
20174;DHT22;10246;50.620;7.232;2024-02-21T01:58:15;10.00;1.00
20174;DHT22;10246;50.620;7.232;2024-02-21T02:00:42;10.00;1.00
20174;DHT22;10246;50.620;7.232;2024-02-21T02:03:11;10.00;1.00
20174;DHT22;10246;50.620;7.232;2024-02-21T02:05:43;10.00;1.00
20174;DHT22;10246;50.620;7.232;2024-02-21T02:08:10;10.00;1.00
20174;DHT22;10246;50.620;7.232;2024-02-21T02:10:38;10.00;1.00
20174;DHT22;10246;50.620;7.232;2024-02-21T02:13:05;10.00;1.00
20174;DHT22;10246;50.620;7.232;2024-02-21T02:15:38;10.00;1.00
20174;DHT22;10246;50.620;7.232;2024-02-21T02:18:05;10.00;1.00
20174;DHT22;10246;50.620;7.232;2024-02-21T02:20:31;10.10;1.00
20174;DHT22;10246;50.620;7.232;2024-02-21T02:22:59;10.10;1.00
20174;DHT22;10246;50.620;7.232;2024-02-21T02:25:27;10.00;1.00
20174;DHT22;10246;50.620;7.232;2024-02-21T02:27:54;10.00;1.00
20174;DHT22;10246;50.620;7.232;2024-02-21T02:30:20;10.00;1.00
20174;DHT22;10246;50.620;7.232;2024-02-21T02:32:47;10.00;1.10
20174;DHT22;10246;50.620;7.232;2024-02-21T02:35:14;9.90;1.50
20174;DHT22;10246;50.620;7.232;2024-02-21T02:37:47;9.90;1.80
20174;DHT22;10246;50.620;7.232;2024-02-21T02:40:14;9.90;1.80
20174;DHT22;10246;50.620;7.232;2024-02-21T02:42:42;9.90;1.90
20174;DHT22;10246;50.620;7.232;2024-02-21T02:45:09;9.90;1.40
20174;DHT22;10246;50.620;7.232;2024-02-21T02:47:36;9.90;1.90
20174;DHT22;10246;50.620;7.232;2024-02-21T02:50:04;10.00;1.40
20174;DHT22;10246;50.620;7.232;2024-02-21T02:52:30;9.90;2.60
20174;DHT22;10246;50.620;7.232;2024-02-21T02:54:58;9.90;2.50
20174;DHT22;10246;50.620;7.232;2024-02-21T02:57:24;9.90;2.70
20174;DHT22;10246;50.620;7.232;2024-02-21T02:59:52;9.90;2.90
20174;DHT22;10246;50.620;7.232;2024-02-21T03:02:19;9.90;3.00
20174;DHT22;10246;50.620;7.232;2024-02-21T03:04:46;9.90;3.60
20174;DHT22;10246;50.620;7.232;2024-02-21T03:07:14;9.90;3.20
20174;DHT22;10246;50.620;7.232;2024-02-21T03:09:41;9.90;3.50
20174;DHT22;10246;50.620;7.232;2024-02-21T03:12:09;9.80;3.30
20174;DHT22;10246;50.620;7.232;2024-02-21T03:14:35;9.80;3.80
20174;DHT22;10246;50.620;7.232;2024-02-21T03:17:03;9.90;3.80
20174;DHT22;10246;50.620;7.232;2024-02-21T03:19:30;9.80;3.50
20174;DHT22;10246;50.620;7.232;2024-02-21T03:21:57;9.80;3.40
20174;DHT22;10246;50.620;7.232;2024-02-21T03:24:24;9.80;3.20
20174;DHT22;10246;50.620;7.232;2024-02-21T03:26:50;9.80;2.90
20174;DHT22;10246;50.620;7.232;2024-02-21T03:29:17;9.80;2.60
20174;DHT22;10246;50.620;7.232;2024-02-21T03:31:44;9.80;2.40
20174;DHT22;10246;50.620;7.232;2024-02-21T03:34:12;9.80;3.10
20174;DHT22;10246;50.620;7.232;2024-02-21T03:36:39;9.80;2.50
20174;DHT22;10246;50.620;7.232;2024-02-21T03:39:05;9.80;2.00
20174;DHT22;10246;50.620;7.232;2024-02-21T03:41:33;9.80;1.90
20174;DHT22;10246;50.620;7.232;2024-02-21T03:44:00;9.80;2.00
20174;DHT22;10246;50.620;7.232;2024-02-21T03:46:27;9.80;2.70
20174;DHT22;10246;50.620;7.232;2024-02-21T03:48:54;9.80;2.60
20174;DHT22;10246;50.620;7.232;2024-02-21T03:51:22;9.80;2.90
20174;DHT22;10246;50.620;7.232;2024-02-21T03:53:49;9.80;2.30
20174;DHT22;10246;50.620;7.232;2024-02-21T03:56:15;9.80;2.40
20174;DHT22;10246;50.620;7.232;2024-02-21T03:58:42;9.80;2.50
20174;DHT22;10246;50.620;7.232;2024-02-21T04:01:09;9.80;2.90
20174;DHT22;10246;50.620;7.232;2024-02-21T04:03:35;9.80;2.80
20174;DHT22;10246;50.620;7.232;2024-02-21T04:06:03;9.70;2.90
20174;DHT22;10246;50.620;7.232;2024-02-21T04:08:31;9.70;3.10
20174;DHT22;10246;50.620;7.232;2024-02-21T04:10:58;9.70;3.10
20174;DHT22;10246;50.620;7.232;2024-02-21T04:13:25;9.70;2.90
20174;DHT22;10246;50.620;7.232;2024-02-21T04:15:52;9.70;2.50
20174;DHT22;10246;50.620;7.232;2024-02-21T04:18:19;9.70;3.10
20174;DHT22;10246;50.620;7.232;2024-02-21T04:20:45;9.70;3.30
20174;DHT22;10246;50.620;7.232;2024-02-21T04:23:13;9.70;3.60
20174;DHT22;10246;50.620;7.232;2024-02-21T04:25:41;9.70;3.40
20174;DHT22;10246;50.620;7.232;2024-02-21T04:28:07;9.70;3.00
20174;DHT22;10246;50.620;7.232;2024-02-21T04:30:34;9.70;3.10
20174;DHT22;10246;50.620;7.232;2024-02-21T04:33:01;9.70;3.00
20174;DHT22;10246;50.620;7.232;2024-02-21T04:35:28;9.70;3.30
20174;DHT22;10246;50.620;7.232;2024-02-21T04:37:55;9.70;3.60
20174;DHT22;10246;50.620;7.232;2024-02-21T04:40:21;9.70;4.30
20174;DHT22;10246;50.620;7.232;2024-02-21T04:42:50;9.70;4.10
20174;DHT22;10246;50.620;7.232;2024-02-21T04:45:16;9.70;4.10
20174;DHT22;10246;50.620;7.232;2024-02-21T04:47:43;9.70;4.10
20174;DHT22;10246;50.620;7.232;2024-02-21T04:50:11;9.80;3.00
20174;DHT22;10246;50.620;7.232;2024-02-21T04:52:38;9.70;3.50
20174;DHT22;10246;50.620;7.232;2024-02-21T04:55:05;9.70;4.90
20174;DHT22;10246;50.620;7.232;2024-02-21T04:57:32;9.70;4.60
20174;DHT22;10246;50.620;7.232;2024-02-21T05:00:01;9.60;5.10
20174;DHT22;10246;50.620;7.232;2024-02-21T05:02:29;9.70;4.80
20174;DHT22;10246;50.620;7.232;2024-02-21T05:04:55;9.70;4.50
20174;DHT22;10246;50.620;7.232;2024-02-21T05:07:22;9.70;4.20
20174;DHT22;10246;50.620;7.232;2024-02-21T05:09:49;9.70;3.80
20174;DHT22;10246;50.620;7.232;2024-02-21T05:12:18;9.70;2.70
20174;DHT22;10246;50.620;7.232;2024-02-21T05:14:45;9.70;3.10
20174;DHT22;10246;50.620;7.232;2024-02-21T05:17:14;9.70;2.60
20174;DHT22;10246;50.620;7.232;2024-02-21T05:19:41;9.70;2.70
20174;DHT22;10246;50.620;7.232;2024-02-21T05:22:08;9.70;2.80
20174;DHT22;10246;50.620;7.232;2024-02-21T05:24:35;9.70;2.70
20174;DHT22;10246;50.620;7.232;2024-02-21T05:27:02;9.70;2.70
20174;DHT22;10246;50.620;7.232;2024-02-21T05:29:28;9.60;3.10
20174;DHT22;10246;50.620;7.232;2024-02-21T05:31:56;9.70;3.30
20174;DHT22;10246;50.620;7.232;2024-02-21T05:34:25;9.70;3.10
20174;DHT22;10246;50.620;7.232;2024-02-21T05:36:52;9.70;3.40
20174;DHT22;10246;50.620;7.232;2024-02-21T05:39:19;9.70;3.50
20174;DHT22;10246;50.620;7.232;2024-02-21T05:41:48;9.60;3.60
20174;DHT22;10246;50.620;7.232;2024-02-21T05:44:15;9.60;4.40
20174;DHT22;10246;50.620;7.232;2024-02-21T05:46:42;9.60;4.60
20174;DHT22;10246;50.620;7.232;2024-02-21T05:49:09;9.60;5.10
20174;DHT22;10246;50.620;7.232;2024-02-21T05:51:37;9.60;5.30
20174;DHT22;10246;50.620;7.232;2024-02-21T05:54:03;9.60;5.50
20174;DHT22;10246;50.620;7.232;2024-02-21T05:56:30;9.60;6.10
20174;DHT22;10246;50.620;7.232;2024-02-21T05:58:57;9.60;6.10
20174;DHT22;10246;50.620;7.232;2024-02-21T06:01:24;9.60;5.50
20174;DHT22;10246;50.620;7.232;2024-02-21T06:03:49;9.60;5.60
20174;DHT22;10246;50.620;7.232;2024-02-21T06:06:16;9.60;6.60
20174;DHT22;10246;50.620;7.232;2024-02-21T06:08:44;9.60;6.70
20174;DHT22;10246;50.620;7.232;2024-02-21T06:11:11;9.60;6.50
20174;DHT22;10246;50.620;7.232;2024-02-21T06:13:40;9.60;5.90
20174;DHT22;10246;50.620;7.232;2024-02-21T06:16:07;9.50;5.90
20174;DHT22;10246;50.620;7.232;2024-02-21T06:18:35;9.50;6.50
20174;DHT22;10246;50.620;7.232;2024-02-21T06:21:02;9.60;7.40
20174;DHT22;10246;50.620;7.232;2024-02-21T06:23:29;9.60;6.50
20174;DHT22;10246;50.620;7.232;2024-02-21T06:25:57;9.50;6.40
20174;DHT22;10246;50.620;7.232;2024-02-21T06:28:24;9.60;6.70
20174;DHT22;10246;50.620;7.232;2024-02-21T06:30:51;9.60;6.50
20174;DHT22;10246;50.620;7.232;2024-02-21T06:33:18;9.60;7.10
20174;DHT22;10246;50.620;7.232;2024-02-21T06:35:48;9.60;7.20
20174;DHT22;10246;50.620;7.232;2024-02-21T06:38:17;9.60;7.40
20174;DHT22;10246;50.620;7.232;2024-02-21T06:40:44;9.60;7.20
20174;DHT22;10246;50.620;7.232;2024-02-21T06:43:17;9.50;7.30
20174;DHT22;10246;50.620;7.232;2024-02-21T06:45:44;9.50;7.00
20174;DHT22;10246;50.620;7.232;2024-02-21T06:48:13;9.60;7.10
20174;DHT22;10246;50.620;7.232;2024-02-21T06:50:39;9.60;7.60
20174;DHT22;10246;50.620;7.232;2024-02-21T06:53:06;9.60;8.00
20174;DHT22;10246;50.620;7.232;2024-02-21T06:55:33;9.50;8.40
20174;DHT22;10246;50.620;7.232;2024-02-21T06:58:00;9.50;9.00
20174;DHT22;10246;50.620;7.232;2024-02-21T07:00:29;9.50;9.40
20174;DHT22;10246;50.620;7.232;2024-02-21T07:02:56;9.50;8.80
20174;DHT22;10246;50.620;7.232;2024-02-21T07:05:23;9.50;8.40
20174;DHT22;10246;50.620;7.232;2024-02-21T07:07:50;9.50;6.90
20174;DHT22;10246;50.620;7.232;2024-02-21T07:10:17;9.50;8.30
20174;DHT22;10246;50.620;7.232;2024-02-21T07:12:43;9.50;7.80
20174;DHT22;10246;50.620;7.232;2024-02-21T07:15:10;9.60;6.30
20174;DHT22;10246;50.620;7.232;2024-02-21T07:17:38;9.60;4.80
20174;DHT22;10246;50.620;7.232;2024-02-21T07:20:06;9.60;5.90
20174;DHT22;10246;50.620;7.232;2024-02-21T07:22:33;9.60;6.20
20174;DHT22;10246;50.620;7.232;2024-02-21T07:25:00;9.60;6.30
20174;DHT22;10246;50.620;7.232;2024-02-21T07:27:26;9.60;6.00
20174;DHT22;10246;50.620;7.232;2024-02-21T07:29:56;9.60;5.90
20174;DHT22;10246;50.620;7.232;2024-02-21T07:32:23;9.60;5.90
20174;DHT22;10246;50.620;7.232;2024-02-21T07:34:51;9.70;6.40
20174;DHT22;10246;50.620;7.232;2024-02-21T07:37:17;9.70;5.30
20174;DHT22;10246;50.620;7.232;2024-02-21T07:39:44;9.70;4.80
20174;DHT22;10246;50.620;7.232;2024-02-21T07:42:11;9.70;3.70
20174;DHT22;10246;50.620;7.232;2024-02-21T07:44:37;9.70;4.20
20174;DHT22;10246;50.620;7.232;2024-02-21T07:47:04;9.80;4.00
20174;DHT22;10246;50.620;7.232;2024-02-21T07:49:32;9.70;4.20
20174;DHT22;10246;50.620;7.232;2024-02-21T07:52:01;9.70;4.80
20174;DHT22;10246;50.620;7.232;2024-02-21T07:54:28;9.80;3.50
20174;DHT22;10246;50.620;7.232;2024-02-21T07:56:55;9.80;3.90
20174;DHT22;10246;50.620;7.232;2024-02-21T07:59:22;9.80;3.70
20174;DHT22;10246;50.620;7.232;2024-02-21T08:01:49;9.80;3.70
20174;DHT22;10246;50.620;7.232;2024-02-21T08:04:15;9.80;3.20
20174;DHT22;10246;50.620;7.232;2024-02-21T08:06:42;9.80;3.40
20174;DHT22;10246;50.620;7.232;2024-02-21T08:09:11;9.80;2.30
20174;DHT22;10246;50.620;7.232;2024-02-21T08:11:38;9.80;2.60
20174;DHT22;10246;50.620;7.232;2024-02-21T08:14:05;9.80;2.80
20174;DHT22;10246;50.620;7.232;2024-02-21T08:16:32;9.80;2.20
20174;DHT22;10246;50.620;7.232;2024-02-21T08:18:59;9.80;1.50
20174;DHT22;10246;50.620;7.232;2024-02-21T08:21:28;9.80;1.50
20174;DHT22;10246;50.620;7.232;2024-02-21T08:23:55;9.80;1.00
20174;DHT22;10246;50.620;7.232;2024-02-21T08:26:23;9.80;1.10
20174;DHT22;10246;50.620;7.232;2024-02-21T08:28:53;9.80;1.00
20174;DHT22;10246;50.620;7.232;2024-02-21T08:31:20;9.90;1.00
20174;DHT22;10246;50.620;7.232;2024-02-21T08:33:48;9.90;1.00
20174;DHT22;10246;50.620;7.232;2024-02-21T08:36:17;9.90;1.00
20174;DHT22;10246;50.620;7.232;2024-02-21T08:38:45;9.90;1.00
20174;DHT22;10246;50.620;7.232;2024-02-21T08:41:12;9.90;1.00
20174;DHT22;10246;50.620;7.232;2024-02-21T08:43:40;10.00;1.00
20174;DHT22;10246;50.620;7.232;2024-02-21T08:46:06;9.90;1.00
20174;DHT22;10246;50.620;7.232;2024-02-21T08:48:33;10.00;1.00
20174;DHT22;10246;50.620;7.232;2024-02-21T08:51:00;10.00;1.00
20174;DHT22;10246;50.620;7.232;2024-02-21T08:53:27;10.00;1.00
20174;DHT22;10246;50.620;7.232;2024-02-21T08:55:54;10.10;1.00
20174;DHT22;10246;50.620;7.232;2024-02-21T08:58:20;10.10;1.00
20174;DHT22;10246;50.620;7.232;2024-02-21T09:00:50;10.20;1.00
20174;DHT22;10246;50.620;7.232;2024-02-21T09:03:17;10.20;1.00
20174;DHT22;10246;50.620;7.232;2024-02-21T09:05:45;10.30;1.00
20174;DHT22;10246;50.620;7.232;2024-02-21T09:08:12;10.20;1.00
20174;DHT22;10246;50.620;7.232;2024-02-21T09:10:39;10.30;1.00
20174;DHT22;10246;50.620;7.232;2024-02-21T09:13:06;10.30;1.00
20174;DHT22;10246;50.620;7.232;2024-02-21T09:15:34;10.30;1.00
20174;DHT22;10246;50.620;7.232;2024-02-21T09:18:02;10.40;1.00
20174;DHT22;10246;50.620;7.232;2024-02-21T09:20:29;10.40;1.00
20174;DHT22;10246;50.620;7.232;2024-02-21T09:22:56;10.40;1.00
20174;DHT22;10246;50.620;7.232;2024-02-21T09:25:23;10.40;1.00
20174;DHT22;10246;50.620;7.232;2024-02-21T09:27:49;10.40;1.00
20174;DHT22;10246;50.620;7.232;2024-02-21T09:30:17;10.50;1.00
20174;DHT22;10246;50.620;7.232;2024-02-21T09:32:44;10.50;1.00
20174;DHT22;10246;50.620;7.232;2024-02-21T09:35:12;10.50;1.00
20174;DHT22;10246;50.620;7.232;2024-02-21T09:37:39;10.60;1.00
20174;DHT22;10246;50.620;7.232;2024-02-21T09:40:07;10.60;1.00
20174;DHT22;10246;50.620;7.232;2024-02-21T09:42:37;10.60;1.00
20174;DHT22;10246;50.620;7.232;2024-02-21T09:45:08;10.60;1.00
20174;DHT22;10246;50.620;7.232;2024-02-21T09:47:53;10.60;1.00
20174;DHT22;10246;50.620;7.232;2024-02-21T09:50:24;10.60;1.00
20174;DHT22;10246;50.620;7.232;2024-02-21T09:52:54;10.70;1.00
20174;DHT22;10246;50.620;7.232;2024-02-21T09:55:21;10.70;1.00
20174;DHT22;10246;50.620;7.232;2024-02-21T09:57:50;10.70;1.00
20174;DHT22;10246;50.620;7.232;2024-02-21T10:00:18;10.80;1.00
20174;DHT22;10246;50.620;7.232;2024-02-21T10:02:47;10.80;1.00
20174;DHT22;10246;50.620;7.232;2024-02-21T10:05:14;10.90;1.00
20174;DHT22;10246;50.620;7.232;2024-02-21T10:07:44;10.90;1.00
20174;DHT22;10246;50.620;7.232;2024-02-21T10:10:11;11.00;1.00
20174;DHT22;10246;50.620;7.232;2024-02-21T10:12:48;11.00;1.00
20174;DHT22;10246;50.620;7.232;2024-02-21T10:15:19;11.00;1.00
20174;DHT22;10246;50.620;7.232;2024-02-21T10:17:47;11.00;1.00
20174;DHT22;10246;50.620;7.232;2024-02-21T10:20:14;11.10;1.00
20174;DHT22;10246;50.620;7.232;2024-02-21T10:22:41;11.20;1.00
20174;DHT22;10246;50.620;7.232;2024-02-21T10:25:10;11.20;1.00
20174;DHT22;10246;50.620;7.232;2024-02-21T10:27:38;11.30;1.00
20174;DHT22;10246;50.620;7.232;2024-02-21T10:30:06;11.30;1.00
20174;DHT22;10246;50.620;7.232;2024-02-21T10:32:33;11.30;1.00
20174;DHT22;10246;50.620;7.232;2024-02-21T10:35:04;11.40;1.00
20174;DHT22;10246;50.620;7.232;2024-02-21T10:37:31;11.40;1.00
20174;DHT22;10246;50.620;7.232;2024-02-21T10:39:58;11.50;1.00
20174;DHT22;10246;50.620;7.232;2024-02-21T10:42:29;11.50;1.00
20174;DHT22;10246;50.620;7.232;2024-02-21T10:45:00;11.50;1.00
20174;DHT22;10246;50.620;7.232;2024-02-21T10:47:32;11.50;1.00
20174;DHT22;10246;50.620;7.232;2024-02-21T10:50:03;11.50;1.00
20174;DHT22;10246;50.620;7.232;2024-02-21T10:52:37;11.50;1.00
20174;DHT22;10246;50.620;7.232;2024-02-21T10:55:11;11.50;1.00
20174;DHT22;10246;50.620;7.232;2024-02-21T10:57:44;11.50;1.00
20174;DHT22;10246;50.620;7.232;2024-02-21T11:00:15;11.60;1.00
20174;DHT22;10246;50.620;7.232;2024-02-21T11:02:43;11.60;1.00
20174;DHT22;10246;50.620;7.232;2024-02-21T11:05:11;11.60;1.00
20174;DHT22;10246;50.620;7.232;2024-02-21T11:07:38;11.50;1.00
20174;DHT22;10246;50.620;7.232;2024-02-21T11:10:20;11.60;1.00
20174;DHT22;10246;50.620;7.232;2024-02-21T11:12:48;11.60;1.00
20174;DHT22;10246;50.620;7.232;2024-02-21T11:15:15;11.70;1.00
20174;DHT22;10246;50.620;7.232;2024-02-21T11:17:42;11.70;1.00
20174;DHT22;10246;50.620;7.232;2024-02-21T11:20:12;11.70;1.00
20174;DHT22;10246;50.620;7.232;2024-02-21T11:22:42;11.80;1.00
20174;DHT22;10246;50.620;7.232;2024-02-21T11:25:09;11.80;1.00
20174;DHT22;10246;50.620;7.232;2024-02-21T11:27:37;11.70;1.00
20174;DHT22;10246;50.620;7.232;2024-02-21T11:30:06;11.80;1.00
20174;DHT22;10246;50.620;7.232;2024-02-21T11:32:34;11.90;1.00
20174;DHT22;10246;50.620;7.232;2024-02-21T11:35:03;11.90;1.00
20174;DHT22;10246;50.620;7.232;2024-02-21T11:37:31;11.90;1.00
20174;DHT22;10246;50.620;7.232;2024-02-21T11:39:59;11.90;1.00
20174;DHT22;10246;50.620;7.232;2024-02-21T11:42:26;12.00;1.00
20174;DHT22;10246;50.620;7.232;2024-02-21T11:44:54;12.00;1.00
20174;DHT22;10246;50.620;7.232;2024-02-21T11:47:24;12.00;1.00
20174;DHT22;10246;50.620;7.232;2024-02-21T11:49:51;12.00;1.00
20174;DHT22;10246;50.620;7.232;2024-02-21T11:52:22;12.00;1.00
20174;DHT22;10246;50.620;7.232;2024-02-21T11:54:50;12.00;1.00
20174;DHT22;10246;50.620;7.232;2024-02-21T11:57:17;12.10;1.00
20174;DHT22;10246;50.620;7.232;2024-02-21T11:59:44;12.10;1.00
20174;DHT22;10246;50.620;7.232;2024-02-21T12:02:14;12.10;1.00
20174;DHT22;10246;50.620;7.232;2024-02-21T12:04:44;12.10;1.00
20174;DHT22;10246;50.620;7.232;2024-02-21T12:07:11;12.20;1.00
20174;DHT22;10246;50.620;7.232;2024-02-21T12:09:38;12.10;1.00
20174;DHT22;10246;50.620;7.232;2024-02-21T12:12:08;12.20;1.00
20174;DHT22;10246;50.620;7.232;2024-02-21T12:14:35;12.20;1.00
20174;DHT22;10246;50.620;7.232;2024-02-21T12:17:03;12.20;1.00
20174;DHT22;10246;50.620;7.232;2024-02-21T12:19:30;12.10;1.00
20174;DHT22;10246;50.620;7.232;2024-02-21T12:21:59;12.10;1.00
20174;DHT22;10246;50.620;7.232;2024-02-21T12:24:27;12.10;1.00
20174;DHT22;10246;50.620;7.232;2024-02-21T12:26:55;12.10;1.00
20174;DHT22;10246;50.620;7.232;2024-02-21T12:29:23;12.10;1.00
20174;DHT22;10246;50.620;7.232;2024-02-21T12:31:51;12.10;1.00
20174;DHT22;10246;50.620;7.232;2024-02-21T12:34:19;12.10;1.00
20174;DHT22;10246;50.620;7.232;2024-02-21T12:36:47;12.00;1.00
20174;DHT22;10246;50.620;7.232;2024-02-21T12:39:15;12.10;1.00
20174;DHT22;10246;50.620;7.232;2024-02-21T12:41:43;12.10;1.00
20174;DHT22;10246;50.620;7.232;2024-02-21T12:44:21;12.10;1.00
20174;DHT22;10246;50.620;7.232;2024-02-21T12:46:48;12.10;1.00
20174;DHT22;10246;50.620;7.232;2024-02-21T12:49:18;12.00;1.00
20174;DHT22;10246;50.620;7.232;2024-02-21T12:51:47;12.10;1.00
20174;DHT22;10246;50.620;7.232;2024-02-21T12:54:15;12.10;1.00
20174;DHT22;10246;50.620;7.232;2024-02-21T12:56:42;12.10;1.00
20174;DHT22;10246;50.620;7.232;2024-02-21T12:59:09;12.00;1.00
20174;DHT22;10246;50.620;7.232;2024-02-21T13:01:36;11.90;1.00
20174;DHT22;10246;50.620;7.232;2024-02-21T13:04:03;12.00;1.00
20174;DHT22;10246;50.620;7.232;2024-02-21T13:06:29;11.90;1.00
20174;DHT22;10246;50.620;7.232;2024-02-21T13:08:56;12.00;1.00
20174;DHT22;10246;50.620;7.232;2024-02-21T13:11:24;12.00;1.00
20174;DHT22;10246;50.620;7.232;2024-02-21T13:13:53;12.10;1.00
20174;DHT22;10246;50.620;7.232;2024-02-21T13:16:20;12.00;1.00
20174;DHT22;10246;50.620;7.232;2024-02-21T13:18:48;12.00;1.00
20174;DHT22;10246;50.620;7.232;2024-02-21T13:21:15;12.00;1.00
20174;DHT22;10246;50.620;7.232;2024-02-21T13:23:41;12.00;1.00
20174;DHT22;10246;50.620;7.232;2024-02-21T13:26:09;12.00;1.00
20174;DHT22;10246;50.620;7.232;2024-02-21T13:28:38;11.90;1.00
20174;DHT22;10246;50.620;7.232;2024-02-21T13:31:04;11.90;1.00
20174;DHT22;10246;50.620;7.232;2024-02-21T13:33:31;11.90;1.00
20174;DHT22;10246;50.620;7.232;2024-02-21T13:35:58;11.90;1.00
20174;DHT22;10246;50.620;7.232;2024-02-21T13:38:30;11.90;1.00
20174;DHT22;10246;50.620;7.232;2024-02-21T13:40:57;11.90;1.00
20174;DHT22;10246;50.620;7.232;2024-02-21T13:43:25;12.00;1.00
20174;DHT22;10246;50.620;7.232;2024-02-21T13:45:57;11.90;1.00
20174;DHT22;10246;50.620;7.232;2024-02-21T13:48:24;11.90;1.00
20174;DHT22;10246;50.620;7.232;2024-02-21T13:50:50;11.90;1.00
20174;DHT22;10246;50.620;7.232;2024-02-21T13:53:17;12.00;1.00
20174;DHT22;10246;50.620;7.232;2024-02-21T13:55:46;12.00;1.00
20174;DHT22;10246;50.620;7.232;2024-02-21T13:58:13;12.00;1.00
20174;DHT22;10246;50.620;7.232;2024-02-21T14:00:40;12.00;1.00
20174;DHT22;10246;50.620;7.232;2024-02-21T14:03:08;11.90;1.00
20174;DHT22;10246;50.620;7.232;2024-02-21T14:05:35;11.90;1.00
20174;DHT22;10246;50.620;7.232;2024-02-21T14:08:02;11.90;1.00
20174;DHT22;10246;50.620;7.232;2024-02-21T14:10:29;11.90;1.00
20174;DHT22;10246;50.620;7.232;2024-02-21T14:12:55;11.90;1.00
20174;DHT22;10246;50.620;7.232;2024-02-21T14:15:22;11.90;1.00
20174;DHT22;10246;50.620;7.232;2024-02-21T14:17:50;11.90;1.00
20174;DHT22;10246;50.620;7.232;2024-02-21T14:20:18;11.90;1.00
20174;DHT22;10246;50.620;7.232;2024-02-21T14:22:45;11.90;1.00
20174;DHT22;10246;50.620;7.232;2024-02-21T14:25:12;11.90;1.00
20174;DHT22;10246;50.620;7.232;2024-02-21T14:27:41;11.90;1.00
20174;DHT22;10246;50.620;7.232;2024-02-21T14:30:09;11.90;1.00
20174;DHT22;10246;50.620;7.232;2024-02-21T14:32:36;11.90;1.00
20174;DHT22;10246;50.620;7.232;2024-02-21T14:35:04;11.90;1.00
20174;DHT22;10246;50.620;7.232;2024-02-21T14:37:32;11.90;1.00
20174;DHT22;10246;50.620;7.232;2024-02-21T14:39:59;11.80;1.00
20174;DHT22;10246;50.620;7.232;2024-02-21T14:42:26;11.80;1.00
20174;DHT22;10246;50.620;7.232;2024-02-21T14:44:53;11.80;1.00
20174;DHT22;10246;50.620;7.232;2024-02-21T14:47:29;11.80;1.00
20174;DHT22;10246;50.620;7.232;2024-02-21T14:49:56;11.80;1.00
20174;DHT22;10246;50.620;7.232;2024-02-21T14:52:23;11.90;1.00
20174;DHT22;10246;50.620;7.232;2024-02-21T14:54:54;11.90;1.00
20174;DHT22;10246;50.620;7.232;2024-02-21T14:57:21;11.90;1.00
20174;DHT22;10246;50.620;7.232;2024-02-21T14:59:49;11.90;1.00
20174;DHT22;10246;50.620;7.232;2024-02-21T15:02:21;11.90;1.00
20174;DHT22;10246;50.620;7.232;2024-02-21T15:04:48;11.90;1.00
20174;DHT22;10246;50.620;7.232;2024-02-21T15:07:16;12.00;1.00
20174;DHT22;10246;50.620;7.232;2024-02-21T15:09:44;12.00;1.00
20174;DHT22;10246;50.620;7.232;2024-02-21T15:12:12;12.00;1.00
20174;DHT22;10246;50.620;7.232;2024-02-21T15:14:39;12.00;1.00
20174;DHT22;10246;50.620;7.232;2024-02-21T15:17:06;12.00;1.00
20174;DHT22;10246;50.620;7.232;2024-02-21T15:19:33;11.90;1.00
20174;DHT22;10246;50.620;7.232;2024-02-21T15:22:00;11.90;1.00
20174;DHT22;10246;50.620;7.232;2024-02-21T15:24:26;11.80;1.00
20174;DHT22;10246;50.620;7.232;2024-02-21T15:26:53;11.90;1.00
20174;DHT22;10246;50.620;7.232;2024-02-21T15:29:21;11.80;1.00
20174;DHT22;10246;50.620;7.232;2024-02-21T15:31:49;11.80;1.00
20174;DHT22;10246;50.620;7.232;2024-02-21T15:34:15;11.80;1.00
20174;DHT22;10246;50.620;7.232;2024-02-21T15:36:43;11.80;1.00
20174;DHT22;10246;50.620;7.232;2024-02-21T15:39:09;11.80;1.00
20174;DHT22;10246;50.620;7.232;2024-02-21T15:41:37;11.80;1.00
20174;DHT22;10246;50.620;7.232;2024-02-21T15:44:04;11.80;1.00
20174;DHT22;10246;50.620;7.232;2024-02-21T15:46:32;11.70;1.00
20174;DHT22;10246;50.620;7.232;2024-02-21T15:49:02;11.70;1.00
20174;DHT22;10246;50.620;7.232;2024-02-21T15:51:29;11.60;1.00
20174;DHT22;10246;50.620;7.232;2024-02-21T15:53:56;11.60;1.00